Snowville, NH

1:06 PM EDT on July 25, 2017 (GMT -0400)
Brooktrails Lodge | | Change Station

Elev 1020 ft 43.90 °N, 71.03 °W | Updated 1 minute ago

Overcast
Overcast
63.4 °F
Feels Like 63.4 °F
N
3.0
Wind Variable Wind from ENE
Gusts 4.0 mph

Today
High -- | Low -- °F
--% Chance of Precip.
Yesterday
High -- | Low -- °F
Precip. -- in
Pressure 30.15 in
Visibility 10.0 miles
Clouds Few 3700 ft
Overcast 6500 ft
Dew Point 55 °F
Humidity 75%
Rainfall 0.07 in
Snow Depth Not available.
5:25 AM 8:15 PM
Waxing Crescent, 7% visible
METAR KIZG 251654Z AUTO 34005KT 10SM FEW037 OVC065 20/13 A3014 RMK AO2 SLP208 T02000128
Pressure 30.15 in
Visibility 10.0 miles
Clouds Few 3700 ft
Overcast 6500 ft
Dew Point 55 °F
Humidity 75%
Rainfall 0.07 in
Snow Depth Not available.
5:25 AM 8:15 PM
Waxing Crescent, 7% visible
METAR KIZG 251654Z AUTO 34005KT 10SM FEW037 OVC065 20/13 A3014 RMK AO2 SLP208 T02000128

Get Severe Weather Alerts

Thanks for signing up!

Be on the lookout for a verification email in your inbox.

You'll start receiving the daily forecast at 6 AM.

×

10-Day Weather Forecast

Almanac

Astronomy

Jul. 25, 2017 Rise Set
Actual Time
Civil Twilight
Nautical Twilight
Astronomical Twilight
Moon
Length of Visible Light
Length of Day
Tomorrow will be .
, % of the Moon is Illuminated

Today's Extremes

State Highs State Lows

Community

WunderPhotos

Category 6

Welcome to Category 6. This is the collective home for Weather Underground's featured writeups by Dr. Jeff Masters (right), Bob Henson (left), Chris Burt, and other regular contributors.

Nearby

Air Quality

  Air Quality AQ Index Pollutant
Not available.

Snow Depth

Station Depth Elevation

Earthquake Activity

City Distance Mag. Time & Date
Minimum magnitude displayed is 2.5.

Coastal Water Temperatures

Place Temperature

Stations

Nearby Weather Stations

Station Location Temp. Windchill Dew Point Humidity Wind Precip. Elev Updated Type
                   

Watches & Warnings

There are currently no watches in effect.